createdAt,value
2019-02-12T00:00:58.483Z,6.63
2019-02-12T00:03:28.179Z,5.83
2019-02-12T00:05:58.111Z,4.27
2019-02-12T00:08:27.887Z,9.73
2019-02-12T00:10:57.834Z,8.83
2019-02-12T00:13:27.710Z,14.30
2019-02-12T00:15:57.769Z,6.53
2019-02-12T00:18:27.459Z,7.90
2019-02-12T00:20:57.462Z,7.77
2019-02-12T00:23:27.654Z,7.63
2019-02-12T00:25:57.603Z,8.97
2019-02-12T00:28:27.699Z,6.87
2019-02-12T00:30:57.755Z,9.40
2019-02-12T00:33:27.595Z,6.73
2019-02-12T00:35:57.367Z,9.50
2019-02-12T00:38:27.081Z,5.60
2019-02-12T00:40:58.754Z,20.13
2019-02-12T00:43:28.817Z,7.77
2019-02-12T00:45:58.875Z,17.47
2019-02-12T00:48:28.847Z,15.33
2019-02-12T00:50:59.015Z,15.83
2019-02-12T00:53:29.175Z,14.53
2019-02-12T00:56:05.910Z,12.03
2019-02-12T00:58:35.712Z,20.40
2019-02-12T01:01:05.621Z,10.13
2019-02-12T01:03:35.724Z,8.33
2019-02-12T01:06:05.917Z,12.77
2019-02-12T01:08:36.056Z,12.47
2019-02-12T01:11:05.890Z,6.67
2019-02-12T01:13:36.034Z,7.13
2019-02-12T01:16:05.911Z,10.63
2019-02-12T01:18:35.743Z,12.33
2019-02-12T01:21:05.663Z,9.30
2019-02-12T01:23:35.406Z,7.50
2019-02-12T01:26:06.106Z,8.63
2019-02-12T01:28:35.935Z,8.53
2019-02-12T01:31:05.807Z,11.47
2019-02-12T01:33:35.652Z,6.37
2019-02-12T01:36:05.429Z,6.93
2019-02-12T01:38:35.706Z,11.30
2019-02-12T01:41:05.738Z,6.60
2019-02-12T01:43:35.461Z,10.97
2019-02-12T01:46:05.405Z,5.00
2019-02-12T01:48:35.166Z,7.53
2019-02-12T01:51:05.097Z,5.87
2019-02-12T01:53:35.022Z,9.43
2019-02-12T01:56:04.891Z,9.37
2019-02-12T01:58:34.812Z,10.23
2019-02-12T02:01:04.714Z,10.57
2019-02-12T02:03:34.514Z,9.43
2019-02-12T02:06:04.476Z,14.27
2019-02-12T02:08:34.279Z,8.57
2019-02-12T02:11:04.745Z,8.17
2019-02-12T02:13:34.529Z,8.50
2019-02-12T02:16:04.549Z,8.30
2019-02-12T02:18:35.953Z,7.37
2019-02-12T02:21:06.274Z,10.90
2019-02-12T02:23:36.122Z,8.90
2019-02-12T02:26:06.472Z,9.83
2019-02-12T02:28:36.534Z,9.53
2019-02-12T02:31:06.583Z,13.83
2019-02-12T02:33:36.366Z,13.33
2019-02-12T02:36:06.086Z,8.90
2019-02-12T02:38:35.950Z,15.07
2019-02-12T02:41:06.367Z,13.73
2019-02-12T02:43:36.155Z,8.67
2019-02-12T02:46:05.971Z,12.13
2019-02-12T02:48:36.074Z,7.13
2019-02-12T02:51:06.107Z,7.03
2019-02-12T02:53:36.202Z,9.50
2019-02-12T02:56:06.263Z,6.90
2019-02-12T02:58:36.052Z,9.97
2019-02-12T03:01:08.323Z,10.07
2019-02-12T03:03:39.510Z,7.53
2019-02-12T03:06:09.796Z,10.67
2019-02-12T03:08:39.595Z,10.53
2019-02-12T03:11:09.674Z,8.07
2019-02-12T03:13:39.623Z,8.70
2019-02-12T03:16:09.422Z,7.33
2019-02-12T03:18:39.189Z,6.93
2019-02-12T03:21:09.078Z,9.27
2019-02-12T03:23:38.882Z,13.90
2019-02-12T03:26:08.735Z,7.87
2019-02-12T03:28:38.550Z,7.00
2019-02-12T03:31:08.515Z,5.93
2019-02-12T03:33:38.338Z,11.17
2019-02-12T03:36:08.123Z,10.23
2019-02-12T03:38:38.054Z,10.80
2019-02-12T03:41:08.190Z,10.43
2019-02-12T03:43:38.043Z,12.47
2019-02-12T03:46:08.059Z,8.90
2019-02-12T03:48:37.828Z,9.03
2019-02-12T03:51:08.064Z,9.47
2019-02-12T03:53:38.283Z,7.80
2019-02-12T03:56:08.246Z,10.37
2019-02-12T03:58:39.277Z,11.47
2019-02-12T04:01:09.194Z,10.83
2019-02-12T04:03:38.985Z,12.90
2019-02-12T04:06:08.879Z,9.23
2019-02-12T04:08:41.763Z,9.73
2019-02-12T04:11:11.875Z,10.43
2019-02-12T04:13:41.900Z,10.03
2019-02-12T04:16:11.654Z,14.20
2019-02-12T04:18:41.825Z,10.83
2019-02-12T04:21:11.936Z,11.13
2019-02-12T04:23:41.782Z,11.50
2019-02-12T04:26:11.778Z,9.00
2019-02-12T04:28:41.754Z,8.67
2019-02-12T04:31:11.626Z,12.13
2019-02-12T04:33:41.746Z,11.00
2019-02-12T04:36:11.454Z,10.60
2019-02-12T04:38:41.408Z,16.03
2019-02-12T04:41:11.174Z,8.57
2019-02-12T04:43:40.971Z,13.10
2019-02-12T04:46:10.772Z,12.80
2019-02-12T04:48:40.463Z,8.10
2019-02-12T04:51:10.272Z,12.87
2019-02-12T04:53:40.202Z,11.27
2019-02-12T04:56:10.506Z,11.13
2019-02-12T04:58:40.636Z,12.20
2019-02-12T05:01:10.514Z,16.97
2019-02-12T05:03:40.229Z,11.60
2019-02-12T05:06:10.104Z,14.90
2019-02-12T05:09:15.319Z,12.03
2019-02-12T05:11:48.689Z,12.23
2019-02-12T05:14:18.572Z,8.07
2019-02-12T05:16:51.250Z,16.67
2019-02-12T05:19:21.011Z,9.20
2019-02-12T05:21:50.950Z,12.63
2019-02-12T05:24:20.754Z,12.53
2019-02-12T05:26:50.864Z,9.20
2019-02-12T05:29:20.799Z,11.00
2019-02-12T05:31:50.551Z,11.70
2019-02-12T05:34:20.244Z,14.77
2019-02-12T05:36:50.041Z,12.47
2019-02-12T05:39:20.037Z,9.53
2019-02-12T05:41:50.106Z,14.23
2019-02-12T05:44:19.817Z,10.30
2019-02-12T05:46:49.630Z,11.57
2019-02-12T05:49:19.699Z,12.70
2019-02-12T05:51:49.479Z,12.00
2019-02-12T05:54:19.514Z,10.63
2019-02-12T05:56:49.508Z,11.77
2019-02-12T05:59:19.239Z,11.57
2019-02-12T06:01:49.163Z,9.23
2019-02-12T06:04:18.835Z,15.80
2019-02-12T06:06:48.566Z,12.67
2019-02-12T06:09:18.515Z,14.40
2019-02-12T06:11:48.491Z,18.53
2019-02-12T06:14:18.210Z,17.23
2019-02-12T06:16:47.958Z,14.33
2019-02-12T06:19:18.263Z,12.23
2019-02-12T06:21:48.319Z,11.70
2019-02-12T06:24:18.355Z,14.33
2019-02-12T06:26:48.707Z,11.97
2019-02-12T06:29:18.383Z,14.70
2019-02-12T06:31:48.250Z,17.00
2019-02-12T06:34:18.182Z,13.57
2019-02-12T06:36:47.902Z,13.03
2019-02-12T06:39:17.574Z,9.37
2019-02-12T06:41:47.282Z,15.20
2019-02-12T06:44:17.036Z,16.23
2019-02-12T06:46:46.761Z,13.03
2019-02-12T06:49:16.437Z,16.67
2019-02-12T06:51:46.147Z,17.57
2019-02-12T06:54:15.984Z,18.53
2019-02-12T06:56:45.833Z,14.13
2019-02-12T06:59:15.932Z,18.47
2019-02-12T07:01:45.958Z,16.70
2019-02-12T07:04:25.017Z,12.40
2019-02-12T07:07:19.031Z,36.80
2019-02-12T07:09:57.897Z,31.93
2019-02-12T07:13:21.182Z,25.43
2019-02-12T07:16:19.458Z,17.00
2019-02-12T07:19:18.490Z,21.70
2019-02-12T07:22:24.630Z,17.07
2019-02-12T07:25:17.578Z,23.30
2019-02-12T07:28:16.583Z,17.00
2019-02-12T07:31:27.617Z,16.53
2019-02-12T07:34:08.882Z,17.10
2019-02-12T07:37:04.602Z,20.47
2019-02-12T07:39:59.106Z,15.47
2019-02-12T07:43:10.265Z,12.67
2019-02-12T07:46:24.630Z,14.13
2019-02-12T07:49:04.986Z,24.23
2019-02-12T07:52:04.868Z,14.80
2019-02-12T07:54:48.495Z,12.40
2019-02-12T07:57:35.207Z,13.80
2019-02-12T08:00:34.803Z,17.40
2019-02-12T08:03:44.498Z,14.83
2019-02-12T08:07:07.815Z,21.03
2019-02-12T08:10:06.273Z,26.07
2019-02-12T08:13:06.529Z,18.13
2019-02-12T08:16:11.334Z,16.60
2019-02-12T08:18:55.335Z,12.87
2019-02-12T08:21:56.613Z,13.20
2019-02-12T08:25:06.966Z,15.33
2019-02-12T08:28:08.258Z,16.03
2019-02-12T08:31:31.147Z,17.33
2019-02-12T08:34:34.165Z,17.07
2019-02-12T08:37:32.544Z,14.60
2019-02-12T08:40:15.759Z,18.57
2019-02-12T08:43:42.596Z,15.13
2019-02-12T08:46:53.235Z,13.17
2019-02-12T08:49:51.854Z,14.87
2019-02-12T08:52:46.827Z,21.90
2019-02-12T08:55:53.833Z,16.73
2019-02-12T08:59:02.681Z,15.90
2019-02-12T09:02:16.671Z,16.70
2019-02-12T09:05:11.158Z,20.40
2019-02-12T09:08:20.929Z,19.50
2019-02-12T09:11:20.226Z,21.37
2019-02-12T09:14:12.596Z,16.03
2019-02-12T09:17:17.238Z,17.77
2019-02-12T09:20:38.033Z,17.57
2019-02-12T09:23:40.787Z,18.30
2019-02-12T09:26:40.179Z,19.43
2019-02-12T09:29:46.060Z,17.13
2019-02-12T09:33:08.726Z,14.13
2019-02-12T09:35:46.524Z,13.53
2019-02-12T09:38:47.234Z,13.33
2019-02-12T09:42:07.394Z,22.40
2019-02-12T09:45:25.866Z,12.80
2019-02-12T09:48:48.802Z,15.80
2019-02-12T09:51:30.475Z,15.50
2019-02-12T09:54:22.479Z,16.43
2019-02-12T09:57:34.135Z,14.27
2019-02-12T10:00:19.511Z,16.70
2019-02-12T10:03:39.691Z,16.53
2019-02-12T10:07:15.226Z,19.33
2019-02-12T10:10:28.763Z,18.83
2019-02-12T10:13:07.309Z,24.23
2019-02-12T10:16:21.407Z,11.93
2019-02-12T10:19:14.022Z,12.20
2019-02-12T10:22:19.923Z,17.33
2019-02-12T10:25:02.833Z,12.33
2019-02-12T10:28:02.561Z,15.30
2019-02-12T10:31:08.978Z,12.27
2019-02-12T10:33:38.734Z,11.47
2019-02-12T10:36:08.517Z,8.43
2019-02-12T10:38:38.249Z,10.33
2019-02-12T10:41:08.067Z,11.73
2019-02-12T10:43:37.842Z,12.97
2019-02-12T10:46:07.533Z,8.77
2019-02-12T10:48:37.250Z,13.23
2019-02-12T10:51:07.107Z,14.53
2019-02-12T10:53:37.176Z,14.03
2019-02-12T10:56:07.285Z,10.63
2019-02-12T11:01:01.306Z,9.70
2019-02-12T11:03:31.386Z,10.67
2019-02-12T11:06:01.103Z,13.40
2019-02-12T11:08:30.982Z,12.33
2019-02-12T11:11:00.784Z,11.13
2019-02-12T11:13:30.590Z,11.03
2019-02-12T11:16:00.624Z,12.53
2019-02-12T11:18:30.518Z,7.70
2019-02-12T11:21:00.618Z,8.93
2019-02-12T11:23:30.353Z,11.27
2019-02-12T11:26:00.227Z,9.37
2019-02-12T11:28:30.222Z,11.73
2019-02-12T11:31:00.694Z,11.13
2019-02-12T11:33:30.531Z,9.43
2019-02-12T11:36:00.322Z,9.77
2019-02-12T11:38:30.346Z,12.70
2019-02-12T11:41:00.056Z,9.37
2019-02-12T11:43:29.753Z,8.13
2019-02-12T11:45:59.466Z,11.03
2019-02-12T11:48:29.402Z,11.23
2019-02-12T11:50:59.137Z,14.57
2019-02-12T11:53:28.918Z,12.77
2019-02-12T11:55:58.628Z,9.73
2019-02-12T11:58:28.632Z,10.27
2019-02-12T12:01:00.459Z,8.33
2019-02-12T12:03:30.714Z,12.07
2019-02-12T12:06:00.525Z,9.53
2019-02-12T12:08:30.338Z,10.77
2019-02-12T12:11:00.046Z,11.77
2019-02-12T12:13:29.734Z,9.53
2019-02-12T12:15:59.686Z,10.27
2019-02-12T12:18:29.378Z,10.83
2019-02-12T12:20:59.154Z,7.40
2019-02-12T12:23:28.939Z,7.10
2019-02-12T12:25:59.020Z,13.13
2019-02-12T12:28:28.739Z,6.10
2019-02-12T12:30:58.643Z,7.47
2019-02-12T12:33:28.831Z,9.00
2019-02-12T12:35:58.516Z,8.67
2019-02-12T12:38:28.442Z,10.50
2019-02-12T12:40:58.217Z,13.77
2019-02-12T12:43:27.910Z,6.27
2019-02-12T12:45:58.835Z,8.00
2019-02-12T12:48:28.617Z,7.80
2019-02-12T12:50:58.438Z,8.57
2019-02-12T12:53:28.169Z,11.93
2019-02-12T12:55:57.885Z,5.87
2019-02-12T12:58:27.888Z,6.63
2019-02-12T13:00:57.665Z,15.63
2019-02-12T13:03:27.346Z,11.70
2019-02-12T13:05:57.126Z,9.67
2019-02-12T13:08:26.906Z,8.80
2019-02-12T13:10:56.957Z,8.00
2019-02-12T13:13:26.934Z,7.53
2019-02-12T13:15:56.837Z,9.90
2019-02-12T13:18:26.543Z,15.97
2019-02-12T13:20:56.481Z,6.90
2019-02-12T13:23:26.189Z,5.50
2019-02-12T13:25:56.363Z,4.97
2019-02-12T13:28:26.068Z,5.43
2019-02-12T13:30:55.734Z,6.43
2019-02-12T13:33:26.649Z,4.80
2019-02-12T13:35:56.433Z,7.00
2019-02-12T13:38:26.138Z,9.53
2019-02-12T13:40:55.821Z,6.23
2019-02-12T13:43:25.836Z,4.10
2019-02-12T13:45:55.522Z,6.93
2019-02-12T13:48:25.211Z,8.10
2019-02-12T13:50:55.294Z,10.33
2019-02-12T13:53:24.999Z,8.33
2019-02-12T13:55:54.703Z,9.53
2019-02-12T13:58:24.486Z,8.80
2019-02-12T14:00:54.160Z,10.57
2019-02-12T14:03:23.938Z,5.07
2019-02-12T14:05:53.799Z,6.17
2019-02-12T14:08:23.808Z,12.43
2019-02-12T14:10:53.734Z,6.03
2019-02-12T14:13:23.670Z,10.23
2019-02-12T14:15:53.341Z,10.50
2019-02-12T14:18:23.042Z,9.03
2019-02-12T14:20:53.888Z,6.17
2019-02-12T14:23:23.754Z,7.73
2019-02-12T14:25:53.474Z,6.57
2019-02-12T14:28:23.351Z,10.43
2019-02-12T14:30:53.010Z,6.90
2019-02-12T14:33:22.718Z,16.17
2019-02-12T14:35:52.517Z,5.30
2019-02-12T14:38:22.496Z,16.60
2019-02-12T14:40:52.230Z,8.50
2019-02-12T14:43:22.170Z,9.47
2019-02-12T14:45:52.188Z,19.57
2019-02-12T14:48:22.186Z,7.10
2019-02-12T14:50:51.893Z,7.30
2019-02-12T14:53:21.989Z,26.93
2019-02-12T14:55:51.981Z,23.00
2019-02-12T14:58:21.714Z,39.57
2019-02-12T15:00:51.608Z,12.00
2019-02-12T15:03:21.402Z,13.03
2019-02-12T15:05:51.236Z,7.83
2019-02-12T15:08:20.939Z,5.20
2019-02-12T15:10:51.122Z,7.87
2019-02-12T15:13:21.322Z,10.87
2019-02-12T15:15:51.356Z,7.37
2019-02-12T15:18:21.162Z,5.93
2019-02-12T15:20:50.986Z,11.70
2019-02-12T15:23:20.943Z,10.03
2019-02-12T15:25:50.627Z,10.47
2019-02-12T15:28:20.830Z,18.40
2019-02-12T15:30:50.871Z,8.77
2019-02-12T15:33:20.572Z,11.30
2019-02-12T15:35:50.565Z,8.50
2019-02-12T15:38:20.443Z,7.83
2019-02-12T15:40:50.130Z,6.60
2019-02-12T15:43:19.990Z,6.03
2019-02-12T15:45:50.021Z,14.03
2019-02-12T15:48:20.454Z,7.90
2019-02-12T15:50:50.462Z,10.30
2019-02-12T15:53:20.310Z,10.07
2019-02-12T15:55:51.568Z,7.50
2019-02-12T15:58:21.442Z,13.57
2019-02-12T16:00:51.590Z,14.70
2019-02-12T16:03:21.642Z,11.13
2019-02-12T16:05:51.587Z,9.37
2019-02-12T16:08:21.391Z,8.50
2019-02-12T16:10:51.394Z,10.07
2019-02-12T16:13:25.530Z,16.03
2019-02-12T16:15:57.334Z,18.93
2019-02-12T16:18:27.107Z,16.10
2019-02-12T16:20:57.251Z,16.23
2019-02-12T16:23:26.983Z,14.03
2019-02-12T16:25:59.492Z,13.33
2019-02-12T16:28:28.479Z,8.47
2019-02-12T16:30:58.325Z,12.30
2019-02-12T16:33:28.255Z,11.33
2019-02-12T16:40:16.753Z,22.73
2019-02-12T16:42:46.547Z,15.73
2019-02-12T16:45:19.708Z,12.43
2019-02-12T16:47:49.708Z,10.13
2019-02-12T16:50:19.555Z,8.80
2019-02-12T16:52:49.271Z,14.53
2019-02-12T16:55:19.485Z,8.13
2019-02-12T16:57:49.243Z,12.40
2019-02-12T17:00:19.186Z,8.63
2019-02-12T17:02:49.197Z,10.07
2019-02-12T17:05:19.250Z,13.00
2019-02-12T17:07:49.391Z,10.37
2019-02-12T17:10:19.646Z,22.37
2019-02-12T17:12:49.490Z,21.97
2019-02-12T17:15:19.539Z,19.47
2019-02-12T17:17:49.271Z,20.60
2019-02-12T17:20:19.178Z,18.07
2019-02-12T17:22:49.159Z,19.77
2019-02-12T17:25:19.480Z,11.87
2019-02-12T17:27:49.841Z,8.17
2019-02-12T17:30:19.662Z,9.93
2019-02-12T17:32:49.622Z,7.13
2019-02-12T17:35:19.367Z,7.30
2019-02-12T17:37:49.655Z,43.43
2019-02-12T17:40:19.370Z,13.10
2019-02-12T17:42:49.470Z,12.17
2019-02-12T17:45:19.324Z,12.57
2019-02-12T17:47:49.469Z,17.47
2019-02-12T17:50:19.273Z,15.20
2019-02-12T17:52:49.039Z,23.70
2019-02-12T17:55:18.985Z,30.47
2019-02-12T17:57:48.798Z,30.23
2019-02-12T18:00:21.242Z,45.60
2019-02-12T18:02:51.272Z,44.47
2019-02-12T18:05:21.593Z,33.53
2019-02-12T18:07:51.329Z,34.43
2019-02-12T18:10:21.187Z,25.37
2019-02-12T18:12:50.982Z,19.07
2019-02-12T18:15:20.770Z,21.23
2019-02-12T18:17:50.958Z,20.50
2019-02-12T18:20:26.362Z,21.30
2019-02-12T18:22:52.995Z,29.10
2019-02-12T18:25:22.715Z,24.67
2019-02-12T18:27:52.526Z,16.33
2019-02-12T18:30:22.554Z,16.87
2019-02-12T18:32:52.274Z,16.80
2019-02-12T18:35:23.205Z,18.90
2019-02-12T18:37:53.002Z,19.87
2019-02-12T18:40:23.158Z,22.40
2019-02-12T18:42:53.223Z,22.47
2019-02-12T18:45:23.343Z,15.87
2019-02-12T18:47:53.071Z,11.87
2019-02-12T18:50:22.942Z,14.70
2019-02-12T18:52:52.987Z,17.83
2019-02-12T18:55:22.937Z,16.60
2019-02-12T18:57:53.280Z,17.27
2019-02-12T19:00:22.986Z,19.27
2019-02-12T19:02:52.954Z,18.10
2019-02-12T19:05:23.131Z,17.97
2019-02-12T19:07:52.986Z,21.37
2019-02-12T19:10:22.769Z,27.80
2019-02-12T19:12:52.485Z,55.23
2019-02-12T19:15:22.429Z,138.93
2019-02-12T19:17:56.382Z,48.87
2019-02-12T19:20:26.571Z,29.37
2019-02-12T19:22:57.060Z,19.67
2019-02-12T19:25:27.248Z,23.10
2019-02-12T19:27:57.554Z,79.00
2019-02-12T19:30:32.427Z,51.57
2019-02-12T19:33:04.284Z,37.13
2019-02-12T19:35:36.932Z,69.10
2019-02-12T19:38:10.127Z,40.37
2019-02-12T19:40:49.726Z,38.97
2019-02-12T19:43:28.484Z,27.60
2019-02-12T19:46:01.387Z,42.77
2019-02-12T19:48:32.755Z,51.03
2019-02-12T19:51:03.715Z,33.73
2019-02-12T19:53:40.326Z,28.00
2019-02-12T19:56:14.143Z,51.00
2019-02-12T19:58:44.180Z,75.63
2019-02-12T20:01:14.473Z,44.43
2019-02-12T20:03:45.447Z,24.70
2019-02-12T20:06:17.423Z,28.30
2019-02-12T20:08:47.609Z,30.57
2019-02-12T20:11:21.090Z,36.80
2019-02-12T20:13:53.407Z,43.87
2019-02-12T20:16:23.607Z,50.03
2019-02-12T20:18:53.876Z,48.80
2019-02-12T20:21:27.377Z,47.27
2019-02-12T20:23:59.932Z,33.07
2019-02-12T20:26:30.207Z,34.13
2019-02-12T20:29:00.511Z,31.67
2019-02-12T20:31:35.050Z,37.90
2019-02-12T20:34:04.976Z,39.50
2019-02-12T20:36:35.193Z,55.77
2019-02-12T20:39:10.671Z,55.90
2019-02-12T20:41:41.551Z,46.53
2019-02-12T20:44:12.587Z,50.00
2019-02-12T20:46:43.052Z,22.67
2019-02-12T20:49:13.284Z,29.47
2019-02-12T20:51:46.045Z,26.80
2019-02-12T20:54:16.654Z,84.17
2019-02-12T20:56:48.316Z,22.37
2019-02-12T20:59:19.361Z,20.70
2019-02-12T21:01:50.242Z,32.53
2019-02-12T21:04:20.924Z,18.93
2019-02-12T21:06:51.153Z,15.07
2019-02-12T21:09:22.239Z,15.37
2019-02-12T21:11:52.569Z,20.43
2019-02-12T21:14:23.579Z,19.40
2019-02-12T21:16:54.586Z,17.70
2019-02-12T21:19:27.102Z,19.10
2019-02-12T21:21:57.166Z,18.50
2019-02-12T21:24:26.973Z,16.20
2019-02-12T21:26:56.803Z,22.37
2019-02-12T21:29:26.662Z,25.17
2019-02-12T21:31:56.467Z,18.23
2019-02-12T21:34:26.268Z,19.50
2019-02-12T21:36:56.231Z,15.60
2019-02-12T21:39:26.728Z,30.60
2019-02-12T21:41:58.081Z,27.57
2019-02-12T21:44:27.926Z,43.23
2019-02-12T21:46:57.729Z,35.37
2019-02-12T21:49:27.699Z,22.93
2019-02-12T21:51:57.734Z,23.10
2019-02-12T21:54:27.849Z,21.17
2019-02-12T21:56:57.674Z,30.67
2019-02-12T21:59:29.703Z,17.67
2019-02-12T22:01:59.669Z,20.03
2019-02-12T22:04:31.076Z,18.40
2019-02-12T22:07:00.948Z,24.20
2019-02-12T22:09:30.789Z,24.57
2019-02-12T22:12:00.560Z,23.53
2019-02-12T22:14:30.975Z,22.23
2019-02-12T22:17:00.842Z,17.50
2019-02-12T22:19:31.013Z,17.13
2019-02-12T22:22:00.872Z,20.47
2019-02-12T22:24:30.746Z,20.53
2019-02-12T22:27:00.925Z,18.40
2019-02-12T22:29:30.930Z,19.77
2019-02-12T22:32:01.033Z,28.47
2019-02-12T22:34:30.923Z,25.90
2019-02-12T22:37:02.574Z,25.63
2019-02-12T22:39:32.428Z,21.40
2019-02-12T22:42:02.342Z,26.77
2019-02-12T22:44:32.533Z,32.17
2019-02-12T22:47:02.414Z,132.83
2019-02-12T22:49:32.511Z,86.43
2019-02-12T22:52:02.342Z,66.80
2019-02-12T22:54:32.106Z,72.53
2019-02-12T22:57:03.242Z,33.27
2019-02-12T22:59:33.047Z,41.73
2019-02-12T23:02:03.283Z,42.90
2019-02-12T23:04:33.353Z,41.87
2019-02-12T23:07:03.172Z,39.63
2019-02-12T23:09:33.571Z,32.50
2019-02-12T23:12:04.078Z,27.67
2019-02-12T23:14:34.018Z,25.57
2019-02-12T23:17:04.149Z,30.53
2019-02-12T23:19:34.337Z,27.17
2019-02-12T23:22:04.549Z,33.07
2019-02-12T23:24:34.467Z,26.67
2019-02-12T23:27:04.485Z,24.40
2019-02-12T23:29:34.463Z,20.90
2019-02-12T23:32:11.716Z,19.20
2019-02-12T23:34:42.686Z,19.03
2019-02-12T23:37:12.662Z,19.23
2019-02-12T23:39:42.554Z,18.27
2019-02-12T23:42:12.680Z,19.27
2019-02-12T23:44:42.685Z,17.10
2019-02-12T23:47:12.479Z,16.63
2019-02-12T23:49:42.458Z,16.90
2019-02-12T23:52:12.448Z,14.03
2019-02-12T23:54:42.143Z,13.13
2019-02-12T23:57:11.941Z,12.23
2019-02-12T23:59:41.710Z,15.73
